Time;durP1;ratioP1;P1;durP2;ratioP2;P2;SDS_P1;SDS_P2;PMS_P1;PMS_P2;Temp;Humidity;BMP_temperature;BMP_pressure;BME280_temperature;BME280_humidity;BME280_pressure;Samples;Min_cycle;Max_cycle;Signal;HPM_P1;HPM_P2
2023/06/16 00:04:28;;;;;;;9.13;4.10;;;13.10;99.90;;;;;;10425136;28;20852;-90
2023/06/16 00:09:31;;;;;;;4.18;3.88;;;13.10;99.90;;;;;;10440585;28;20211;-92
2023/06/16 00:14:33;;;;;;;4.95;3.97;;;13.00;99.90;;;;;;10430528;28;20234;-90
2023/06/16 00:19:37;;;;;;;6.95;4.00;;;13.10;99.90;;;;;;10449362;28;20598;-91
2023/06/16 00:24:39;;;;;;;6.97;5.28;;;13.10;99.90;;;;;;10425787;28;20263;-91
2023/06/16 00:29:42;;;;;;;6.03;5.05;;;12.90;99.90;;;;;;10408118;28;20803;-91
2023/06/16 00:34:45;;;;;;;6.22;5.65;;;12.70;99.90;;;;;;10425743;28;20271;-91
2023/06/16 00:39:48;;;;;;;15.50;5.70;;;12.60;99.90;;;;;;10407490;28;20269;-91
2023/06/16 00:44:50;;;;;;;6.82;5.30;;;12.30;99.90;;;;;;10406908;28;20255;-91
2023/06/16 00:49:53;;;;;;;5.78;4.90;;;12.50;99.90;;;;;;10393710;28;20199;-91
2023/06/16 00:54:56;;;;;;;4.82;4.43;;;12.40;99.90;;;;;;10402356;28;20199;-91
2023/06/16 00:59:59;;;;;;;4.97;4.57;;;12.30;99.90;;;;;;10414555;28;20670;-90
2023/06/16 01:05:02;;;;;;;4.00;3.70;;;12.20;99.90;;;;;;10415092;28;20255;-91
2023/06/16 01:10:16;;;;;;;5.57;4.82;;;12.30;99.90;;;;;;10424635;28;20638;-91
2023/06/16 01:15:22;;;;;;;5.70;4.32;;;12.50;99.90;;;;;;10406862;28;20297;-92
2023/06/16 01:20:42;;;;;;;5.50;4.20;;;12.30;99.90;;;;;;10414488;28;20231;-90
2023/06/16 01:25:49;;;;;;;6.60;4.30;;;12.20;99.90;;;;;;10393689;28;20650;-90
2023/06/16 01:30:53;;;;;;;8.32;4.03;;;12.40;99.90;;;;;;10394628;28;20333;-90
2023/06/16 01:35:57;;;;;;;7.93;5.05;;;12.40;99.90;;;;;;10412802;28;20297;-90
2023/06/16 01:41:02;;;;;;;4.78;4.25;;;12.20;99.90;;;;;;10410688;28;20262;-91
2023/06/16 01:46:06;;;;;;;7.30;5.15;;;12.30;99.90;;;;;;10409548;28;21073;-91
2023/06/16 01:51:10;;;;;;;9.98;5.72;;;12.20;99.90;;;;;;10438285;28;20250;-92
2023/06/16 01:56:15;;;;;;;6.18;5.30;;;12.30;99.90;;;;;;10453199;28;20226;-91
2023/06/16 02:01:27;;;;;;;6.32;5.15;;;12.20;99.90;;;;;;10424560;28;20231;-91
2023/06/16 02:06:56;;;;;;;7.53;5.40;;;12.10;99.90;;;;;;10393324;28;20247;-92
2023/06/16 02:11:59;;;;;;;10.57;6.80;;;12.20;99.90;;;;;;10402815;28;20231;-91
2023/06/16 02:17:07;;;;;;;7.28;6.53;;;12.10;99.90;;;;;;10392743;28;20316;-91
2023/06/16 02:22:10;;;;;;;10.98;6.50;;;12.00;99.90;;;;;;10413719;28;20246;-91
2023/06/16 02:27:13;;;;;;;8.95;6.72;;;11.90;99.90;;;;;;10400505;28;20290;-91
2023/06/16 02:32:16;;;;;;;5.70;5.28;;;11.90;99.90;;;;;;10410072;28;20334;-91
2023/06/16 02:37:21;;;;;;;9.65;5.93;;;11.90;99.90;;;;;;10409984;28;20238;-91
2023/06/16 02:42:23;;;;;;;7.32;6.15;;;11.90;99.90;;;;;;10438159;28;20292;-91
2023/06/16 02:47:26;;;;;;;5.75;5.25;;;12.10;99.90;;;;;;10432613;28;20258;-92
2023/06/16 02:52:29;;;;;;;6.32;5.20;;;12.40;99.90;;;;;;10433040;28;20238;-91
2023/06/16 02:57:32;;;;;;;8.13;6.03;;;12.10;99.90;;;;;;10410896;28;20780;-92
2023/06/16 03:02:35;;;;;;;8.05;7.25;;;11.90;99.90;;;;;;10423970;28;20623;-91
2023/06/16 03:07:40;;;;;;;7.53;6.75;;;11.80;99.90;;;;;;10413162;28;21030;-91
2023/06/16 03:12:42;;;;;;;8.63;7.03;;;11.70;99.90;;;;;;10390433;28;20817;-91
2023/06/16 03:17:47;;;;;;;7.22;6.30;;;11.70;99.90;;;;;;10409170;28;20326;-92
2023/06/16 03:22:50;;;;;;;11.32;6.45;;;11.80;99.90;;;;;;10417234;28;20760;-91
2023/06/16 03:27:53;;;;;;;6.80;5.40;;;12.00;99.90;;;;;;10390557;28;20255;-92
2023/06/16 03:32:57;;;;;;;7.22;5.50;;;11.90;99.90;;;;;;10406780;28;20385;-91
2023/06/16 03:38:00;;;;;;;5.78;5.20;;;11.80;99.90;;;;;;10392125;28;20204;-91
2023/06/16 03:43:05;;;;;;;6.45;5.85;;;12.00;99.90;;;;;;10398443;28;20707;-92
2023/06/16 03:48:08;;;;;;;9.75;7.95;;;12.30;99.90;;;;;;10427273;28;21083;-91
2023/06/16 03:53:20;;;;;;;10.48;7.53;;;12.30;99.90;;;;;;10390252;28;20257;-92
2023/06/16 03:58:23;;;;;;;7.82;7.13;;;12.30;99.90;;;;;;10389584;28;20239;-92
2023/06/16 04:03:27;;;;;;;11.50;7.93;;;12.40;99.90;;;;;;10388904;28;20234;-91
2023/06/16 04:08:31;;;;;;;7.53;6.75;;;12.50;99.90;;;;;;10389045;28;20325;-91
2023/06/16 04:13:35;;;;;;;8.52;7.72;;;12.60;99.90;;;;;;10418046;28;20238;-91
2023/06/16 04:18:47;;;;;;;10.95;9.77;;;12.80;99.90;;;;;;10404100;28;20239;-91
2023/06/16 04:23:51;;;;;;;9.48;8.48;;;13.00;99.90;;;;;;10372706;28;20312;-90
2023/06/16 04:28:55;;;;;;;9.77;8.25;;;13.20;99.90;;;;;;10411931;28;20235;-92
2023/06/16 04:34:03;;;;;;;6.60;5.97;;;13.40;99.90;;;;;;10414323;28;20304;-92
2023/06/16 04:39:12;;;;;;;14.88;12.07;;;14.00;99.90;;;;;;10425093;28;20318;-91
2023/06/16 04:44:15;;;;;;;15.07;12.02;;;14.20;99.90;;;;;;10380311;28;20275;-92
2023/06/16 04:49:19;;;;;;;11.18;10.00;;;14.40;99.90;;;;;;10402687;28;20227;-91
2023/06/16 04:54:22;;;;;;;15.02;13.13;;;14.50;99.90;;;;;;10396435;28;20235;-92
2023/06/16 04:59:25;;;;;;;15.10;13.30;;;14.30;99.90;;;;;;10414177;28;20280;-91
2023/06/16 05:04:28;;;;;;;14.77;12.75;;;14.50;99.90;;;;;;10414583;28;20422;-91
2023/06/16 05:09:32;;;;;;;12.52;10.43;;;14.80;99.90;;;;;;10395699;28;20235;-92
2023/06/16 05:14:35;;;;;;;14.18;12.77;;;15.30;99.90;;;;;;10402013;28;20262;-92
2023/06/16 05:19:38;;;;;;;14.85;13.25;;;16.00;99.90;;;;;;10413345;28;20270;-93
2023/06/16 05:24:42;;;;;;;14.13;12.73;;;16.40;99.90;;;;;;10406261;28;20308;-91
2023/06/16 05:29:45;;;;;;;13.90;12.50;;;16.60;99.90;;;;;;10452590;28;20689;-91
2023/06/16 05:34:52;;;;;;;9.02;8.13;;;16.90;99.90;;;;;;10410847;28;20239;-92
2023/06/16 05:39:56;;;;;;;14.13;12.65;;;17.20;99.90;;;;;;10411590;28;20301;-92
2023/06/16 05:44:59;;;;;;;10.68;9.50;;;17.40;99.90;;;;;;10425657;28;20259;-92
2023/06/16 05:50:02;;;;;;;18.38;13.70;;;17.60;99.90;;;;;;10444124;28;20266;-89
2023/06/16 05:55:05;;;;;;;14.13;12.73;;;17.90;99.90;;;;;;10395230;28;20211;-94
2023/06/16 06:00:15;;;;;;;17.55;12.68;;;18.20;99.90;;;;;;10429892;28;20212;-94
2023/06/16 06:05:24;;;;;;;17.40;13.73;;;18.40;99.90;;;;;;10412152;28;20701;-93
2023/06/16 06:10:28;;;;;;;17.83;14.45;;;18.50;99.90;;;;;;10407598;28;20769;-84
2023/06/16 06:15:32;;;;;;;123.68;21.73;;;18.70;99.90;;;;;;10404106;28;20224;-85
2023/06/16 06:20:41;;;;;;;19.98;12.52;;;18.90;99.90;;;;;;10425152;28;20288;-85
2023/06/16 06:25:45;;;;;;;23.17;13.07;;;19.30;99.90;;;;;;10431989;28;20258;-85
2023/06/16 06:30:53;;;;;;;41.55;13.80;;;19.50;99.90;;;;;;10371849;28;20251;-85
2023/06/16 06:35:56;;;;;;;66.68;12.25;;;19.70;99.90;;;;;;10441725;28;20219;-85
2023/06/16 06:41:01;;;;;;;31.10;11.75;;;20.10;99.90;;;;;;10416823;28;20295;-85
2023/06/16 06:46:04;;;;;;;37.08;13.25;;;20.40;99.90;;;;;;10432469;28;20258;-85
2023/06/16 06:51:14;;;;;;;32.72;12.45;;;20.60;99.00;;;;;;10427480;28;20226;-86
2023/06/16 06:56:17;;;;;;;41.25;12.40;;;20.70;99.00;;;;;;10447590;28;20759;-85
2023/06/16 07:01:19;;;;;;;47.88;10.85;;;20.80;98.40;;;;;;10428492;28;20306;-86
2023/06/16 07:06:22;;;;;;;27.35;10.57;;;21.00;97.50;;;;;;10428489;28;20269;-85
2023/06/16 07:11:24;;;;;;;27.60;9.95;;;21.10;97.50;;;;;;10448450;28;20226;-85
2023/06/16 07:16:28;;;;;;;21.40;12.13;;;21.30;96.70;;;;;;10437259;28;20231;-85
2023/06/16 07:21:30;;;;;;;19.55;11.82;;;21.50;95.00;;;;;;10398201;28;20244;-85
2023/06/16 07:26:33;;;;;;;26.10;10.15;;;21.50;94.80;;;;;;10424341;28;20250;-85
2023/06/16 07:31:36;;;;;;;24.08;10.65;;;21.50;94.20;;;;;;10412264;28;20259;-85
2023/06/16 07:36:38;;;;;;;25.38;10.27;;;21.50;94.90;;;;;;10431897;28;20683;-85
2023/06/16 07:41:41;;;;;;;12.55;8.75;;;21.40;93.90;;;;;;10406693;28;20235;-85
2023/06/16 07:46:45;;;;;;;17.38;8.57;;;21.30;92.70;;;;;;10407485;28;20321;-85
2023/06/16 07:51:48;;;;;;;23.85;7.30;;;21.30;94.30;;;;;;10445130;28;20230;-85
2023/06/16 07:56:51;;;;;;;16.17;7.63;;;21.40;93.30;;;;;;10446418;28;20242;-85
2023/06/16 08:01:53;;;;;;;14.98;6.70;;;21.60;92.90;;;;;;10430550;28;20305;-85
2023/06/16 08:06:57;;;;;;;12.70;8.15;;;21.80;92.20;;;;;;10446615;28;20250;-85
2023/06/16 08:11:59;;;;;;;16.75;8.73;;;22.00;91.10;;;;;;10457035;28;20234;-85
2023/06/16 08:17:02;;;;;;;15.40;7.57;;;21.90;91.20;;;;;;10429662;28;20239;-85
2023/06/16 08:22:05;;;;;;;14.20;7.05;;;21.80;91.90;;;;;;10397697;28;20235;-85
2023/06/16 08:27:08;;;;;;;12.77;5.90;;;21.70;92.60;;;;;;10415200;28;20304;-85
2023/06/16 08:32:11;;;;;;;13.48;7.35;;;21.50;91.70;;;;;;10397296;28;20712;-86
2023/06/16 08:37:14;;;;;;;9.20;6.30;;;21.40;91.60;;;;;;10443237;28;20653;-86
2023/06/16 08:42:22;;;;;;;14.45;5.57;;;21.40;91.00;;;;;;10404775;28;20702;-86
2023/06/16 08:47:25;;;;;;;12.32;7.45;;;21.30;92.70;;;;;;10432785;28;20331;-86
2023/06/16 08:52:29;;;;;;;11.65;6.72;;;21.30;90.60;;;;;;10430492;28;20285;-85
2023/06/16 08:57:47;;;;;;;7.78;7.07;;;21.10;90.40;;;;;;10412624;28;20273;-85
2023/06/16 09:02:53;;;;;;;10.15;7.38;;;21.00;92.30;;;;;;10413288;28;20239;-86
2023/06/16 09:07:57;;;;;;;9.95;6.47;;;21.10;92.90;;;;;;10413285;28;20251;-85
2023/06/16 09:13:02;;;;;;;9.38;6.88;;;21.00;91.20;;;;;;10393840;28;20231;-85
2023/06/16 09:18:08;;;;;;;8.45;6.35;;;21.00;91.90;;;;;;10431395;28;20246;-85
2023/06/16 09:23:11;;;;;;;10.80;7.22;;;21.00;92.40;;;;;;10435694;28;20686;-85
2023/06/16 09:28:15;;;;;;;9.63;6.38;;;21.00;91.90;;;;;;10435004;28;20320;-85
2023/06/16 09:33:17;;;;;;;8.57;6.65;;;21.20;92.20;;;;;;10410685;28;20265;-85
2023/06/16 09:38:20;;;;;;;11.43;7.43;;;21.40;90.90;;;;;;10410444;28;20621;-85
2023/06/16 09:43:25;;;;;;;9.13;5.63;;;21.50;90.60;;;;;;10411793;28;20239;-84
2023/06/16 09:48:34;;;;;;;13.57;6.15;;;22.20;91.90;;;;;;10429707;28;20790;-84
2023/06/16 09:53:38;;;;;;;9.00;6.20;;;22.30;90.80;;;;;;10410163;28;20235;-84
2023/06/16 09:58:41;;;;;;;11.57;6.63;;;22.40;89.40;;;;;;10429759;28;20235;-84
2023/06/16 10:03:48;;;;;;;7.35;5.20;;;22.30;83.50;;;;;;10434333;28;20226;-84
2023/06/16 10:08:54;;;;;;;11.60;6.18;;;22.40;85.80;;;;;;10430210;28;20266;-85
2023/06/16 10:14:01;;;;;;;8.85;7.00;;;22.80;84.40;;;;;;10411274;28;20231;-85
2023/06/16 10:19:06;;;;;;;9.02;5.18;;;23.10;82.10;;;;;;10415322;28;20613;-85
2023/06/16 10:24:09;;;;;;;11.93;7.45;;;23.10;83.90;;;;;;10427024;28;20242;-85
2023/06/16 10:29:16;;;;;;;8.70;6.18;;;23.00;78.80;;;;;;10440643;28;20305;-86
2023/06/16 10:34:21;;;;;;;12.27;6.93;;;22.90;79.00;;;;;;10438955;28;20230;-85
2023/06/16 10:39:24;;;;;;;9.70;6.07;;;22.90;77.10;;;;;;10428768;28;20276;-85
2023/06/16 10:44:28;;;;;;;7.97;5.55;;;23.00;80.90;;;;;;10441310;28;20243;-86
2023/06/16 10:49:31;;;;;;;11.35;7.43;;;23.10;77.80;;;;;;10394658;28;20254;-86
2023/06/16 10:54:43;;;;;;;9.65;7.22;;;23.20;77.00;;;;;;10421230;28;20265;-85
2023/06/16 10:59:55;;;;;;;8.00;6.68;;;23.50;74.10;;;;;;10420172;28;20273;-85
2023/06/16 11:05:07;;;;;;;7.60;6.78;;;23.50;74.70;;;;;;10391175;28;20239;-85
2023/06/16 11:10:15;;;;;;;8.13;5.72;;;23.50;72.40;;;;;;10391516;28;20251;-85
2023/06/16 11:15:22;;;;;;;7.25;6.43;;;23.60;70.60;;;;;;10408032;28;20289;-85
2023/06/16 11:20:26;;;;;;;7.55;6.57;;;23.70;68.30;;;;;;10407459;28;20240;-85
2023/06/16 11:25:28;;;;;;;6.40;5.80;;;23.70;63.30;;;;;;10404749;28;20231;-85
2023/06/16 11:30:32;;;;;;;7.47;5.35;;;23.70;65.20;;;;;;10406190;28;20263;-86
2023/06/16 11:35:35;;;;;;;5.32;4.93;;;23.90;66.00;;;;;;10404699;28;21074;-86
2023/06/16 11:40:37;;;;;;;11.15;5.80;;;23.90;66.10;;;;;;10445199;28;20276;-85
2023/06/16 11:45:40;;;;;;;9.73;6.70;;;23.80;65.20;;;;;;10431254;28;20230;-86
2023/06/16 11:50:43;;;;;;;6.55;5.82;;;23.50;63.10;;;;;;10430764;28;20587;-85
2023/06/16 11:55:52;;;;;;;9.55;7.25;;;23.30;67.30;;;;;;10414320;28;20786;-85
2023/06/16 12:01:00;;;;;;;6.30;5.70;;;23.50;64.80;;;;;;10388958;28;20285;-85
2023/06/16 12:06:05;;;;;;;6.20;5.47;;;23.60;64.90;;;;;;10423662;28;20644;-86
2023/06/16 12:11:15;;;;;;;5.68;5.10;;;23.60;68.40;;;;;;10403754;28;20219;-86
2023/06/16 12:16:18;;;;;;;6.35;5.22;;;23.70;65.70;;;;;;10382984;28;20239;-85
2023/06/16 12:21:27;;;;;;;6.13;5.60;;;23.70;62.30;;;;;;10387838;28;20709;-86
2023/06/16 12:26:31;;;;;;;5.30;4.80;;;23.50;62.50;;;;;;10387561;28;20713;-85
2023/06/16 12:31:33;;;;;;;7.15;6.50;;;23.40;57.00;;;;;;10431514;28;20344;-85
2023/06/16 12:36:41;;;;;;;6.97;5.95;;;23.40;60.20;;;;;;10447459;28;20763;-85
2023/06/16 12:42:01;;;;;;;8.70;6.00;;;23.40;58.60;;;;;;10416623;28;20235;-85
2023/06/16 12:47:04;;;;;;;6.47;5.88;;;23.40;59.10;;;;;;10405120;28;20739;-85
2023/06/16 12:52:08;;;;;;;9.20;6.45;;;23.30;51.80;;;;;;10406465;28;20281;-86
2023/06/16 12:57:11;;;;;;;10.35;7.57;;;23.20;53.00;;;;;;10410573;28;20231;-86
2023/06/16 13:02:16;;;;;;;6.75;6.05;;;23.10;48.60;;;;;;10413000;28;20281;-85
2023/06/16 13:07:19;;;;;;;9.15;5.72;;;23.10;58.50;;;;;;10378468;28;20251;-85
2023/06/16 13:12:21;;;;;;;9.02;5.75;;;23.20;53.00;;;;;;10404632;28;20286;-85
2023/06/16 13:17:24;;;;;;;7.82;6.03;;;23.20;59.20;;;;;;10401752;28;20301;-85
2023/06/16 13:22:28;;;;;;;5.55;5.05;;;23.20;56.10;;;;;;10389554;28;20662;-85
2023/06/16 13:27:30;;;;;;;6.35;5.40;;;23.10;62.40;;;;;;10394554;28;20259;-85
2023/06/16 13:32:33;;;;;;;8.68;7.00;;;23.00;59.00;;;;;;10418874;28;20285;-85
2023/06/16 13:37:36;;;;;;;6.50;5.03;;;22.80;51.90;;;;;;10394230;28;20247;-85
2023/06/16 13:42:38;;;;;;;8.00;5.22;;;22.90;61.70;;;;;;10428683;28;20308;-85
2023/06/16 13:47:41;;;;;;;6.22;5.53;;;23.00;59.10;;;;;;10395348;28;20302;-86
2023/06/16 13:52:43;;;;;;;5.97;5.45;;;23.10;58.60;;;;;;10411185;28;20231;-86
2023/06/16 13:57:46;;;;;;;7.38;6.68;;;23.30;60.10;;;;;;10403319;28;20235;-86
2023/06/16 14:02:49;;;;;;;8.40;5.78;;;23.40;47.40;;;;;;10409018;28;20293;-86
2023/06/16 14:07:52;;;;;;;7.78;6.90;;;23.50;52.60;;;;;;10420062;28;20258;-86
2023/06/16 14:12:54;;;;;;;8.85;7.38;;;23.40;47.80;;;;;;10406860;28;20673;-86
2023/06/16 14:17:58;;;;;;;14.10;8.25;;;23.30;48.20;;;;;;10447950;28;20219;-86
2023/06/16 14:23:00;;;;;;;8.90;7.88;;;23.50;46.70;;;;;;10451405;28;20387;-86
2023/06/16 14:28:03;;;;;;;5.40;4.97;;;23.70;49.80;;;;;;10448931;28;20262;-85
2023/06/16 14:33:07;;;;;;;9.10;7.72;;;23.80;51.00;;;;;;10393230;28;20806;-85
2023/06/16 14:38:13;;;;;;;7.95;5.93;;;23.70;47.00;;;;;;10405887;28;20243;-84
2023/06/16 14:43:16;;;;;;;9.73;7.00;;;23.80;52.00;;;;;;10410472;28;20309;-84
2023/06/16 14:48:18;;;;;;;9.32;7.40;;;23.80;49.50;;;;;;10387673;28;20296;-85
2023/06/16 14:53:21;;;;;;;10.93;7.53;;;23.70;49.70;;;;;;10432309;28;20254;-84
2023/06/16 14:58:24;;;;;;;10.07;7.20;;;23.50;43.50;;;;;;10451324;28;20234;-84
2023/06/16 15:03:26;;;;;;;7.65;6.95;;;23.30;42.90;;;;;;10426584;28;20289;-84
2023/06/16 15:08:29;;;;;;;8.88;7.97;;;23.20;48.70;;;;;;10408630;28;20309;-84
2023/06/16 15:13:31;;;;;;;7.75;5.95;;;23.10;51.40;;;;;;10409146;28;20289;-84
2023/06/16 15:18:34;;;;;;;8.75;6.90;;;22.90;59.30;;;;;;10431883;28;20234;-85
2023/06/16 15:23:38;;;;;;;10.25;7.85;;;22.60;63.80;;;;;;10447754;28;20250;-84
2023/06/16 15:28:41;;;;;;;8.07;7.18;;;22.20;74.00;;;;;;10431032;28;20656;-85
2023/06/16 15:33:43;;;;;;;8.85;7.20;;;22.00;74.50;;;;;;10440879;28;20227;-84
2023/06/16 15:38:46;;;;;;;8.60;6.80;;;21.80;74.60;;;;;;10407837;28;20651;-85
2023/06/16 15:43:49;;;;;;;12.15;6.70;;;21.60;76.90;;;;;;10406442;28;20239;-85
2023/06/16 15:48:51;;;;;;;6.70;5.85;;;21.30;79.70;;;;;;10407020;28;20662;-85
2023/06/16 15:53:54;;;;;;;9.45;7.93;;;21.20;82.10;;;;;;10404906;28;20234;-85
2023/06/16 15:58:57;;;;;;;7.20;5.90;;;21.10;83.80;;;;;;10443197;28;20289;-85
2023/06/16 16:03:59;;;;;;;7.53;6.68;;;21.20;85.90;;;;;;10409883;28;20231;-85
2023/06/16 16:09:06;;;;;;;7.55;5.78;;;21.30;85.40;;;;;;10406402;28;20712;-85
2023/06/16 16:14:12;;;;;;;7.43;6.18;;;21.30;88.30;;;;;;10406948;28;20304;-85
2023/06/16 16:19:16;;;;;;;6.43;5.80;;;21.40;90.10;;;;;;10396233;28;20301;-85
2023/06/16 16:24:18;;;;;;;7.25;5.60;;;21.40;89.70;;;;;;10390638;28;20965;-86
2023/06/16 16:29:21;;;;;;;13.52;8.02;;;21.60;89.80;;;;;;10415415;28;20258;-91
2023/06/16 16:34:28;;;;;;;8.98;7.82;;;21.80;88.50;;;;;;10404115;28;20195;-91
2023/06/16 16:39:32;;;;;;;14.07;7.85;;;21.90;90.00;;;;;;10417649;28;20199;-90
2023/06/16 16:44:35;;;;;;;9.48;7.38;;;22.10;89.30;;;;;;10416992;28;20238;-90
2023/06/16 16:49:38;;;;;;;9.48;7.55;;;22.10;88.90;;;;;;10452465;28;20231;-91
2023/06/16 16:54:40;;;;;;;8.43;6.57;;;22.10;88.00;;;;;;10408050;28;20216;-91
2023/06/16 16:59:43;;;;;;;9.60;7.70;;;22.00;90.30;;;;;;10411291;28;20566;-91
2023/06/16 17:04:45;;;;;;;9.80;7.05;;;21.80;90.60;;;;;;10419643;28;20207;-91
2023/06/16 17:09:49;;;;;;;8.40;6.63;;;21.60;91.10;;;;;;10447933;28;20226;-92
2023/06/16 17:14:51;;;;;;;7.97;7.28;;;21.40;92.30;;;;;;10447771;28;20237;-91
2023/06/16 17:19:54;;;;;;;7.47;6.88;;;21.20;94.60;;;;;;10453466;28;20215;-85
2023/06/16 17:24:57;;;;;;;8.23;7.43;;;21.10;94.30;;;;;;10399672;28;20365;-91
2023/06/16 17:30:00;;;;;;;10.15;6.90;;;21.00;95.30;;;;;;10420171;28;20239;-90
2023/06/16 17:35:05;;;;;;;7.65;6.95;;;21.00;95.10;;;;;;10405031;28;20231;-90
2023/06/16 17:40:08;;;;;;;7.65;6.95;;;20.90;94.90;;;;;;10420818;28;20239;-92
2023/06/16 17:45:11;;;;;;;7.63;6.75;;;20.80;94.60;;;;;;10416280;28;20281;-91
2023/06/16 17:50:13;;;;;;;8.10;7.28;;;20.70;94.00;;;;;;10390840;28;20255;-93
2023/06/16 17:55:16;;;;;;;7.35;6.65;;;20.50;95.50;;;;;;10430630;28;20203;-93
2023/06/16 18:00:19;;;;;;;7.07;6.47;;;20.30;95.40;;;;;;10404057;28;20208;-93
2023/06/16 18:05:23;;;;;;;7.63;6.93;;;20.00;96.30;;;;;;10417407;28;20202;-92
2023/06/16 18:10:25;;;;;;;8.07;7.30;;;19.60;97.40;;;;;;10410860;28;20639;-93
2023/06/16 18:15:28;;;;;;;8.73;6.97;;;19.40;98.90;;;;;;10403961;28;20211;-93
2023/06/16 18:20:31;;;;;;;8.05;7.22;;;19.30;99.50;;;;;;10417539;28;20251;-94
2023/06/16 18:25:33;;;;;;;7.40;6.80;;;19.40;99.60;;;;;;10396637;28;20850;-93
2023/06/16 18:30:36;;;;;;;11.02;8.07;;;19.50;99.90;;;;;;10398787;28;20289;-90
2023/06/16 18:35:38;;;;;;;23.08;7.20;;;19.60;99.20;;;;;;10394864;28;20239;-89
2023/06/16 18:40:41;;;;;;;15.25;9.32;;;19.70;99.80;;;;;;10356006;28;20236;-90
2023/06/16 18:45:45;;;;;;;7.63;6.60;;;19.60;99.90;;;;;;10371091;28;20255;-91
2023/06/16 18:50:48;;;;;;;8.80;6.97;;;19.10;99.90;;;;;;10382855;28;20270;-90
2023/06/16 18:55:51;;;;;;;9.13;6.60;;;18.80;99.90;;;;;;10373770;28;20580;-94
2023/06/16 19:00:54;;;;;;;8.63;7.72;;;18.70;99.90;;;;;;9677147;28;10000637;-94
2023/06/16 19:05:57;;;;;;;8.02;7.05;;;18.50;99.90;;;;;;10382944;28;20235;-94
2023/06/16 19:11:00;;;;;;;8.88;7.43;;;18.20;99.90;;;;;;10376578;28;20248;-92
2023/06/16 19:27:25;;;;;;;8.35;7.65;;;17.40;99.90;;;;;;10349077;28;20295;-91
2023/06/16 19:32:28;;;;;;;10.25;8.20;;;17.50;99.90;;;;;;10317162;28;20283;-92
2023/06/16 19:37:32;;;;;;;8.02;6.85;;;17.20;99.90;;;;;;9970736;28;10000534;-91
2023/06/16 19:42:35;;;;;;;8.82;7.95;;;17.10;99.90;;;;;;10348959;28;20213;-91
2023/06/16 19:47:37;;;;;;;9.50;6.63;;;16.90;99.90;;;;;;10333862;28;20668;-91
2023/06/16 19:52:40;;;;;;;9.75;8.27;;;16.80;99.90;;;;;;10331848;28;20208;-91
2023/06/16 19:57:46;;;;;;;12.05;7.28;;;16.50;99.90;;;;;;10317917;28;20251;-91
2023/06/16 20:02:49;;;;;;;8.40;7.60;;;16.20;99.90;;;;;;10348070;28;20271;-92
2023/06/16 20:07:54;;;;;;;7.75;6.95;;;16.10;99.90;;;;;;10332509;28;20209;-91
2023/06/16 20:12:56;;;;;;;7.72;6.93;;;16.20;99.90;;;;;;10333476;28;20208;-91
2023/06/16 20:17:59;;;;;;;7.22;6.43;;;16.30;99.90;;;;;;10315820;28;20216;-91
2023/06/16 20:23:03;;;;;;;6.88;6.38;;;16.40;99.90;;;;;;10316516;28;20700;-91
2023/06/16 20:28:06;;;;;;;9.57;8.68;;;16.60;99.90;;;;;;10333276;28;20244;-90
2023/06/16 20:33:09;;;;;;;8.45;7.75;;;16.50;99.90;;;;;;10332443;28;20241;-90
2023/06/16 20:38:12;;;;;;;8.60;7.80;;;16.30;99.90;;;;;;10348489;28;20213;-90
2023/06/16 20:43:14;;;;;;;10.02;9.13;;;16.10;99.90;;;;;;10333850;28;20209;-91
2023/06/16 20:48:19;;;;;;;10.60;9.55;;;16.00;99.90;;;;;;10348674;28;20746;-91
2023/06/16 20:53:22;;;;;;;8.05;7.28;;;15.90;99.90;;;;;;10315598;28;20260;-91
2023/06/16 20:58:25;;;;;;;10.30;9.30;;;15.90;99.90;;;;;;10332011;28;20213;-91
2023/06/16 21:03:27;;;;;;;9.60;8.68;;;15.70;99.90;;;;;;10332774;28;20209;-90
2023/06/16 21:08:34;;;;;;;9.45;7.20;;;15.70;99.90;;;;;;10331625;28;20283;-90
2023/06/16 21:13:39;;;;;;;11.30;9.98;;;15.70;99.90;;;;;;10323740;28;20209;-91
2023/06/16 21:18:41;;;;;;;10.07;9.02;;;15.80;99.90;;;;;;10346401;28;20283;-91
2023/06/16 21:23:44;;;;;;;13.10;11.40;;;15.70;99.90;;;;;;10340277;28;20225;-90
2023/06/16 21:28:48;;;;;;;9.20;8.38;;;15.70;99.90;;;;;;10338517;28;20568;-91
2023/06/16 21:33:50;;;;;;;10.23;9.13;;;15.70;99.90;;;;;;10338330;28;20563;-90
2023/06/16 21:38:55;;;;;;;10.65;9.50;;;15.50;99.90;;;;;;10338443;28;20209;-91
2023/06/16 21:43:58;;;;;;;10.63;9.52;;;15.40;99.90;;;;;;10339559;28;20252;-90
2023/06/16 21:49:00;;;;;;;8.70;7.80;;;15.20;99.90;;;;;;10338317;28;20228;-90
2023/06/16 21:54:03;;;;;;;12.77;9.02;;;15.30;99.90;;;;;;10338624;28;20205;-90
2023/06/16 21:59:06;;;;;;;11.88;8.65;;;15.00;99.90;;;;;;10321325;28;20660;-91
2023/06/16 22:04:08;;;;;;;11.57;9.25;;;15.10;99.90;;;;;;10353266;28;20564;-91
2023/06/16 22:09:11;;;;;;;10.65;9.00;;;14.90;99.90;;;;;;10338388;28;20691;-91
2023/06/16 22:14:16;;;;;;;7.85;7.15;;;14.70;99.90;;;;;;10320475;28;20263;-91
2023/06/16 22:19:19;;;;;;;9.20;8.30;;;14.90;99.90;;;;;;10320324;28;20217;-91
2023/06/16 22:24:23;;;;;;;12.45;8.82;;;15.10;99.90;;;;;;10351807;28;20691;-91
2023/06/16 22:29:46;;;;;;;10.93;9.80;;;15.00;99.90;;;;;;10319562;28;20232;-91
2023/06/16 22:34:49;;;;;;;10.20;9.20;;;14.90;99.90;;;;;;10319907;28;20655;-92
2023/06/16 22:39:52;;;;;;;8.77;7.97;;;14.80;99.90;;;;;;10351794;28;20521;-91
2023/06/16 22:44:55;;;;;;;10.18;9.25;;;14.60;99.90;;;;;;10352015;28;20209;-91
2023/06/16 22:49:59;;;;;;;9.02;8.13;;;14.80;99.90;;;;;;10336014;28;20229;-91
2023/06/16 22:55:03;;;;;;;9.50;8.50;;;15.00;99.90;;;;;;10318732;28;20209;-91
2023/06/16 23:00:13;;;;;;;9.43;8.63;;;14.80;99.90;;;;;;10350958;28;20213;-91
2023/06/16 23:05:21;;;;;;;9.15;8.27;;;14.60;99.90;;;;;;10329383;28;20220;-92
2023/06/16 23:10:23;;;;;;;8.85;8.07;;;14.50;99.90;;;;;;10334449;28;20687;-92
2023/06/16 23:15:27;;;;;;;13.55;12.13;;;14.70;99.90;;;;;;10318340;28;20209;-91
2023/06/16 23:20:30;;;;;;;14.85;12.80;;;14.70;99.90;;;;;;10335484;28;20209;-92
2023/06/16 23:25:37;;;;;;;12.95;11.40;;;14.50;99.90;;;;;;10332803;28;20229;-92
2023/06/16 23:30:43;;;;;;;14.95;10.93;;;14.40;99.90;;;;;;10351450;28;20225;-91
2023/06/16 23:35:47;;;;;;;12.60;10.90;;;14.10;99.90;;;;;;10334913;28;20185;-92
2023/06/16 23:40:51;;;;;;;12.65;10.40;;;14.20;99.90;;;;;;10334192;28;20237;-91
2023/06/16 23:45:54;;;;;;;15.05;11.65;;;14.10;99.90;;;;;;10335138;28;20534;-91
2023/06/16 23:50:57;;;;;;;11.52;10.23;;;13.90;99.90;;;;;;10333988;28;20229;-91
2023/06/16 23:56:05;;;;;;;11.77;10.65;;;13.90;99.90;;;;;;10333963;28;20213;-92
